Teaser — WDF7969 — position and weather

sailwx.info

Track history (hours):
 
Tides and Currents Weather Stations Pressure Air Temp Water Temp Dewpoint Dewpoint Depression Visibility Wind Speed Wind Dir Waves Ship Positions

Teaser

More information available from US FCC via Universal Licensing System and Coast Guard Vessel Documentation Center.

Last reported at 2014-May-14 00:33 UTC. Time now 2014-Aug-29 22:24 UTC.
Position N 41°21' W 072°23'.
Warning: this ship's position is months out of date.

Date/timePositionNaut miles runAvg speedWind from/ knotsBaromVisibWave heightAir tempDewpointWater temp
2014-May-14 00:33N 41°21' W 072°23'0 0.0
2014-May-13 23:33N 41°21' W 072°23'0 0.0
2014-May-13 22:30N 41°21' W 072°23'0 0.0
2014-May-13 21:27N 41°21' W 072°23'0 0.0
2014-May-13 20:33N 41°21' W 072°23'0 0.0
2014-May-13 19:33N 41°21' W 072°23'4 1.9
2014-May-13 17:33N 41°18' W 072°21'4 4.3
2014-May-13 16:33N 41°15' W 072°17'6 6.2
2014-May-13 15:33N 41°16' W 072°09'7 6.6
2014-May-13 14:33N 41°18' W 072°00'4 4.4
2014-May-13 13:33N 41°20' W 071°55'0 0.0
2014-May-13 12:33N 41°20' W 071°55'0 0.0
2014-May-13 10:33N 41°20' W 071°55'0 0.0
2014-May-13 09:33N 41°20' W 071°55'0 0.0
2014-May-13 08:32N 41°20' W 071°55'0 0.0
2014-May-13 07:32N 41°20' W 071°55'0 0.0
2014-May-13 06:33N 41°20' W 071°55'0 0.0
2014-May-13 05:33N 41°20' W 071°55'0 0.0
2014-May-13 04:33N 41°20' W 071°55'0 0.0
2014-May-13 03:33N 41°20' W 071°55'0 0.0
2014-May-13 02:33N 41°20' W 071°55'0 0.0
2014-May-13 01:33N 41°20' W 071°55'0 0.0
2014-May-13 00:33N 41°20' W 071°55'0 0.0
2014-May-12 23:33N 41°20' W 071°55'1 0.8
2014-May-12 22:34N 41°19' W 071°55'7 6.8
2014-May-12 21:33N 41°19' W 071°46'12 5.9
2014-May-12 19:34N 41°23' W 071°31'5 5.2
2014-May-12 18:33N 41°22' W 071°24'4 6.7
2014-May-12 17:58N 41°23' W 071°19'3 6.0
2014-May-12 17:33N 41°23' W 071°16'6 6.5
2014-May-12 16:33N 41°25' W 071°07'74 1.9
2014-May-11 01:03N 42°37' W 070°41'0 0.0
2014-May-10 22:20N 42°37' W 070°41'4 4.9
2014-May-10 21:33N 42°41' W 070°41'7 6.9
2014-May-10 20:33N 42°47' W 070°39'  
Track history (hours):
 
Tides and Currents Weather Stations Pressure Air Temp Water Temp Dewpoint Dewpoint Depression Visibility Wind Speed Wind Dir Waves Ship Positions

Teaser

More information available from US FCC via Universal Licensing System and Coast Guard Vessel Documentation Center.

Last reported at 2014-May-14 00:33 UTC. Time now 2014-Aug-29 22:24 UTC.
Position N 41°21' W 072°23'.
Warning: this ship's position is months out of date.

Date/timePositionNaut miles runAvg speedWind from/ knotsBaromVisibWave heightAir tempDewpointWater temp
2014-May-14 00:33N 41°21' W 072°23'0 0.0
2014-May-13 23:33N 41°21' W 072°23'0 0.0
2014-May-13 22:30N 41°21' W 072°23'0 0.0
2014-May-13 21:27N 41°21' W 072°23'0 0.0
2014-May-13 20:33N 41°21' W 072°23'0 0.0
2014-May-13 19:33N 41°21' W 072°23'4 1.9
2014-May-13 17:33N 41°18' W 072°21'4 4.3
2014-May-13 16:33N 41°15' W 072°17'6 6.2
2014-May-13 15:33N 41°16' W 072°09'7 6.6
2014-May-13 14:33N 41°18' W 072°00'4 4.4
2014-May-13 13:33N 41°20' W 071°55'0 0.0
2014-May-13 12:33N 41°20' W 071°55'0 0.0
2014-May-13 10:33N 41°20' W 071°55'0 0.0
2014-May-13 09:33N 41°20' W 071°55'0 0.0
2014-May-13 08:32N 41°20' W 071°55'0 0.0
2014-May-13 07:32N 41°20' W 071°55'0 0.0
2014-May-13 06:33N 41°20' W 071°55'0 0.0
2014-May-13 05:33N 41°20' W 071°55'0 0.0
2014-May-13 04:33N 41°20' W 071°55'0 0.0
2014-May-13 03:33N 41°20' W 071°55'0 0.0
2014-May-13 02:33N 41°20' W 071°55'0 0.0
2014-May-13 01:33N 41°20' W 071°55'0 0.0
2014-May-13 00:33N 41°20' W 071°55'0 0.0
2014-May-12 23:33N 41°20' W 071°55'1 0.8
2014-May-12 22:34N 41°19' W 071°55'7 6.8
2014-May-12 21:33N 41°19' W 071°46'12 5.9
2014-May-12 19:34N 41°23' W 071°31'5 5.2
2014-May-12 18:33N 41°22' W 071°24'4 6.7
2014-May-12 17:58N 41°23' W 071°19'3 6.0
2014-May-12 17:33N 41°23' W 071°16'6 6.5
2014-May-12 16:33N 41°25' W 071°07'74 1.9
2014-May-11 01:03N 42°37' W 070°41'0 0.0
2014-May-10 22:20N 42°37' W 070°41'4 4.9
2014-May-10 21:33N 42°41' W 070°41'7 6.9
2014-May-10 20:33N 42°47' W 070°39'  

Dump ship's entire track history